Time;durP1;ratioP1;P1;durP2;ratioP2;P2;SDS_P1;SDS_P2;PMS_P1;PMS_P2;Temp;Humidity;BMP_temperature;BMP_pressure;BME280_temperature;BME280_humidity;BME280_pressure;Samples;Min_cycle;Max_cycle;Signal;HPM_P1;HPM_P2
2021/03/23 00:01:07;;;;;;;62.25;39.50;;;;;;;-0.10;76.52;99279.86;113880;1196;64874;-82
2021/03/23 00:03:39;;;;;;;56.03;35.37;;;;;;;-0.10;76.73;99282.48;113932;1196;64500;-82
2021/03/23 00:06:08;;;;;;;58.37;37.07;;;;;;;-0.10;76.78;99283.34;113918;1196;64481;-82
2021/03/23 00:08:37;;;;;;;62.20;37.73;;;;;;;-0.08;76.63;99283.30;114000;1196;64334;-82
2021/03/23 00:11:14;;;;;;;59.17;38.77;;;;;;;-0.06;76.80;99281.52;113948;1196;64802;-82
2021/03/23 00:13:43;;;;;;;64.10;40.03;;;;;;;-0.04;76.75;99282.36;114017;1196;64356;-82
2021/03/23 00:16:11;;;;;;;59.47;38.90;;;;;;;-0.03;76.50;99281.45;114014;1197;64327;-83
2021/03/23 00:18:39;;;;;;;60.05;39.05;;;;;;;-0.03;76.53;99282.34;113961;1196;64468;-83
2021/03/23 00:21:06;;;;;;;63.80;39.17;;;;;;;-0.01;76.71;99280.53;113917;1197;64375;-82
2021/03/23 00:23:33;;;;;;;60.47;37.80;;;;;;;0.01;76.48;99282.27;113962;1196;64439;-82
2021/03/23 00:26:00;;;;;;;62.00;38.40;;;;;;;0.02;76.43;99278.75;113704;1196;64492;-82
2021/03/23 00:28:27;;;;;;;61.20;37.20;;;;;;;0.03;76.59;99277.84;113923;1196;64410;-83
2021/03/23 00:30:55;;;;;;;55.23;32.97;;;;;;;0.04;77.06;99274.34;113943;1196;64369;-83
2021/03/23 00:33:23;;;;;;;59.67;37.80;;;;;;;0.02;76.47;99278.75;113863;1196;64362;-84
2021/03/23 00:35:54;;;;;;;61.20;35.97;;;;;;;0.02;76.50;99278.75;113871;1197;64452;-83
2021/03/23 00:38:21;;;;;;;59.87;37.07;;;;;;;0.01;76.63;99285.75;113889;1196;64349;-83
2021/03/23 00:40:48;;;;;;;53.03;34.97;;;;;;;0.03;76.56;99280.46;113908;1197;64336;-83
2021/03/23 00:43:15;;;;;;;58.70;34.80;;;;;;;0.03;76.52;99283.97;113901;1196;64455;-82
2021/03/23 00:45:44;;;;;;;54.63;33.10;;;;;;;0.03;76.49;99288.32;113902;1196;64497;-83
2021/03/23 00:48:13;;;;;;;52.93;33.73;;;;;;;0.05;76.42;99276.06;113966;1197;64381;-83
2021/03/23 00:50:41;;;;;;;54.40;34.50;;;;;;;0.06;76.36;99281.28;114131;1196;64381;-83
2021/03/23 00:53:08;;;;;;;54.40;32.40;;;;;;;0.07;76.53;99280.38;114278;1197;64844;-83
2021/03/23 00:55:35;;;;;;;56.85;34.95;;;;;;;0.08;76.49;99276.00;114366;1196;64243;-83
2021/03/23 00:58:02;;;;;;;49.95;33.70;;;;;;;0.11;76.44;99281.20;114180;1196;64369;-83
2021/03/23 01:00:29;;;;;;;51.47;34.27;;;;;;;0.11;76.54;99282.06;113725;1197;64928;-83
2021/03/23 01:02:56;;;;;;;50.40;30.60;;;;;;;0.12;76.38;99280.30;113896;1196;64336;-83
2021/03/23 01:05:26;;;;;;;52.37;32.83;;;;;;;0.13;76.46;99276.77;113935;1196;64464;-83
2021/03/23 01:07:53;;;;;;;48.15;30.75;;;;;;;0.15;76.32;99270.60;113957;1196;64382;-83
2021/03/23 01:10:22;;;;;;;48.07;29.30;;;;;;;0.17;76.62;99274.06;113954;1196;64295;-83
2021/03/23 01:12:48;;;;;;;48.75;32.40;;;;;;;0.18;76.14;99264.44;113754;1197;64372;-82
2021/03/23 01:15:19;;;;;;;47.57;31.63;;;;;;;0.20;76.28;99270.52;113968;1196;64474;-82
2021/03/23 01:17:46;;;;;;;48.57;30.60;;;;;;;0.20;76.11;99258.27;113923;1196;64385;-82
2021/03/23 01:20:15;;;;;;;50.75;33.05;;;;;;;0.21;76.35;99261.75;113891;1197;64362;-82
2021/03/23 01:22:42;;;;;;;47.00;29.70;;;;;;;0.20;76.58;99260.89;113908;1197;64295;-83
2021/03/23 01:25:09;;;;;;;51.13;32.33;;;;;;;0.21;76.46;99260.02;113922;1197;64305;-82
2021/03/23 01:27:36;;;;;;;45.87;30.33;;;;;;;0.21;76.30;99257.39;113921;1196;64365;-83
2021/03/23 01:30:09;;;;;;;46.10;30.60;;;;;;;0.23;76.24;99264.34;113929;1196;64519;-82
2021/03/23 01:32:36;;;;;;;48.27;32.20;;;;;;;0.22;76.11;99263.49;113712;1196;64384;-82
2021/03/23 01:35:05;;;;;;;50.90;33.10;;;;;;;0.22;76.15;99255.63;113679;1197;64448;-82
2021/03/23 01:37:32;;;;;;;54.00;33.13;;;;;;;0.23;76.20;99264.34;113689;1197;64439;-82
2021/03/23 01:39:58;;;;;;;49.93;31.93;;;;;;;0.24;76.21;99266.95;113690;1196;64314;-82
2021/03/23 01:42:41;;;;;;;44.93;27.53;;;;;;;0.25;76.48;99267.81;113931;1196;64930;-82
2021/03/23 01:45:41;;;;;;;50.60;31.45;;;;;;;0.24;76.14;99261.71;113883;1197;64471;-82
2021/03/23 01:48:21;;;;;;;46.33;30.50;;;;;;;0.26;76.09;99259.04;113914;1196;64394;-83
2021/03/23 01:51:07;;;;;;;47.93;32.43;;;;;;;0.25;76.04;99265.19;113917;1197;64701;-83
2021/03/23 01:53:39;;;;;;;51.53;31.10;;;;;;;0.28;76.12;99259.88;113948;1197;64378;-83
2021/03/23 01:56:07;;;;;;;46.00;29.50;;;;;;;0.29;76.14;99254.61;113904;1200;64398;-83
2021/03/23 01:58:39;;;;;;;47.57;31.37;;;;;;;0.29;75.90;99262.48;113927;1197;64346;-83
2021/03/23 02:01:10;;;;;;;49.77;31.13;;;;;;;0.31;75.99;99257.19;113908;1196;64311;-83
2021/03/23 02:03:37;;;;;;;48.15;32.50;;;;;;;0.28;76.15;99255.48;113926;1196;64312;-83
2021/03/23 02:06:05;;;;;;;43.45;29.15;;;;;;;0.27;75.69;99255.55;113936;1196;64542;-83
2021/03/23 02:08:32;;;;;;;44.23;28.97;;;;;;;0.25;76.18;99258.19;113891;1196;64446;-83
2021/03/23 02:11:01;;;;;;;44.80;28.40;;;;;;;0.27;75.74;99258.16;113873;1196;64340;-83
2021/03/23 02:13:28;;;;;;;45.43;28.40;;;;;;;0.25;75.86;99259.95;113960;1196;64333;-81
2021/03/23 02:15:54;;;;;;;39.53;28.27;;;;;;;0.26;75.93;99264.28;113907;1200;64416;-82
2021/03/23 02:18:24;;;;;;;40.50;28.00;;;;;;;0.26;75.79;99256.42;113938;1197;64538;-82
2021/03/23 02:21:09;;;;;;;40.83;27.40;;;;;;;0.24;75.88;99253.84;113967;1196;64483;-82
2021/03/23 02:23:38;;;;;;;41.20;26.63;;;;;;;0.26;75.50;99251.17;113927;1196;64764;-82
2021/03/23 02:26:07;;;;;;;44.80;27.78;;;;;;;0.25;75.75;99249.46;113934;1196;64457;-82
2021/03/23 02:29:06;;;;;;;40.87;27.03;;;;;;;0.25;75.74;99246.84;113877;1196;64802;-82
2021/03/23 02:31:43;;;;;;;42.53;26.80;;;;;;;0.25;75.66;99250.31;113916;1197;65944;-82
2021/03/23 02:34:13;;;;;;;34.47;23.43;;;;;;;0.25;75.75;99250.31;113913;1196;64404;-82
2021/03/23 02:36:42;;;;;;;40.27;27.57;;;;;;;0.24;75.79;99252.95;113881;1196;64408;-83
2021/03/23 02:39:13;;;;;;;45.40;28.93;;;;;;;0.24;75.63;99248.61;113935;1196;64436;-83
2021/03/23 02:41:40;;;;;;;37.17;26.97;;;;;;;0.23;75.93;99246.86;113936;1197;64365;-83
2021/03/23 02:44:07;;;;;;;36.60;24.50;;;;;;;0.23;76.24;99246.86;113932;1197;64381;-82
2021/03/23 02:46:34;;;;;;;38.70;24.97;;;;;;;0.25;75.60;99244.22;113942;1196;64375;-83
2021/03/23 02:49:01;;;;;;;38.13;25.27;;;;;;;0.26;75.74;99238.92;113893;1196;64363;-83
2021/03/23 02:51:27;;;;;;;37.73;24.07;;;;;;;0.28;75.64;99233.66;113948;1197;64369;-83
2021/03/23 02:53:54;;;;;;;42.23;25.30;;;;;;;0.31;75.60;99238.84;113872;1196;64343;-83
2021/03/23 02:56:20;;;;;;;32.37;23.80;;;;;;;0.32;75.43;99235.34;113892;1196;64388;-83
2021/03/23 02:58:47;;;;;;;35.43;23.03;;;;;;;0.34;75.38;99237.03;113907;1196;64369;-82
2021/03/23 03:01:15;;;;;;;36.23;23.27;;;;;;;0.36;75.39;99232.59;113915;1196;64567;-82
2021/03/23 03:03:42;;;;;;;40.80;24.53;;;;;;;0.38;75.31;99235.20;113954;1196;64362;-82
2021/03/23 03:06:11;;;;;;;34.00;23.30;;;;;;;0.38;75.25;99232.58;113952;1196;64367;-83
2021/03/23 03:08:38;;;;;;;34.53;22.57;;;;;;;0.39;75.06;99237.77;113977;1196;64423;-83
2021/03/23 03:11:05;;;;;;;36.43;24.40;;;;;;;0.41;75.04;99232.50;113891;1196;64353;-83
2021/03/23 03:13:33;;;;;;;32.70;22.47;;;;;;;0.41;74.88;99232.50;113993;1196;64417;-82
2021/03/23 03:16:01;;;;;;;32.47;22.93;;;;;;;0.41;75.12;99243.84;113926;1196;64420;-82
2021/03/23 03:18:28;;;;;;;32.50;22.00;;;;;;;0.41;75.12;99243.84;113933;1196;64484;-83
2021/03/23 03:20:57;;;;;;;32.87;23.63;;;;;;;0.42;74.98;99242.97;113870;1197;64456;-82
2021/03/23 03:23:24;;;;;;;33.80;23.00;;;;;;;0.43;75.09;99246.45;113964;1196;64376;-82
2021/03/23 03:25:51;;;;;;;36.10;23.60;;;;;;;0.44;74.75;99242.91;113932;1196;64407;-82
2021/03/23 03:28:19;;;;;;;34.25;22.05;;;;;;;0.43;75.25;99244.68;113915;1197;64372;-82
2021/03/23 03:30:46;;;;;;;32.47;22.20;;;;;;;0.43;75.25;99234.20;113752;1196;64382;-82
2021/03/23 03:33:18;;;;;;;38.00;22.00;;;;;;;0.46;75.20;99230.64;113934;1196;64493;-82
2021/03/23 03:35:47;;;;;;;34.87;22.23;;;;;;;0.47;74.83;99228.88;113900;1197;64381;-82
2021/03/23 03:38:15;;;;;;;39.17;23.33;;;;;;;0.48;74.63;99239.34;113948;1197;64378;-83
2021/03/23 03:40:46;;;;;;;34.93;23.13;;;;;;;0.47;74.29;99227.11;113889;1196;64404;-82
2021/03/23 03:43:16;;;;;;;31.85;21.45;;;;;;;0.49;74.56;99235.81;113954;1196;64314;-82
2021/03/23 03:45:42;;;;;;;32.83;20.43;;;;;;;0.49;74.62;99227.09;113922;1196;64353;-83
2021/03/23 03:48:11;;;;;;;32.27;20.33;;;;;;;0.52;74.58;99233.12;113649;1196;64445;-83
2021/03/23 03:50:37;;;;;;;34.17;18.80;;;;;;;0.56;74.43;99226.92;113938;1197;64410;-83
2021/03/23 03:53:06;;;;;;;29.75;20.60;;;;;;;0.59;74.38;99229.47;113881;1196;64366;-83
2021/03/23 03:55:36;;;;;;;29.30;19.17;;;;;;;0.60;74.26;99228.56;113894;1196;64474;-82
2021/03/23 03:58:03;;;;;;;30.80;18.55;;;;;;;0.63;74.20;99232.88;113906;1196;64314;-82
2021/03/23 04:00:32;;;;;;;29.30;18.77;;;;;;;0.65;73.95;99228.46;113775;1200;64384;-83
2021/03/23 04:03:01;;;;;;;30.20;18.65;;;;;;;0.65;73.94;99229.31;113949;1199;64369;-83
2021/03/23 04:05:33;;;;;;;30.00;18.60;;;;;;;0.68;73.81;99225.77;113955;1197;64382;-82
2021/03/23 04:08:00;;;;;;;28.60;18.10;;;;;;;0.70;73.71;99223.97;113898;1196;64359;-82
2021/03/23 04:10:28;;;;;;;30.90;20.30;;;;;;;0.71;74.04;99228.34;113880;1196;64503;-82
2021/03/23 04:12:55;;;;;;;33.67;21.10;;;;;;;0.72;73.74;99226.58;113915;1196;64771;-82
2021/03/23 04:15:29;;;;;;;30.57;19.60;;;;;;;0.72;73.53;99232.67;113935;1196;64385;-82
2021/03/23 04:17:55;;;;;;;29.60;18.27;;;;;;;0.73;73.49;99233.53;113726;1196;64461;-82
2021/03/23 04:20:23;;;;;;;27.43;16.83;;;;;;;0.73;73.50;99233.53;113629;1196;64365;-82
2021/03/23 04:22:51;;;;;;;28.30;16.97;;;;;;;0.74;73.34;99232.63;113872;1196;64356;-82
2021/03/23 04:25:21;;;;;;;30.00;19.43;;;;;;;0.76;73.22;99238.70;113982;1196;64350;-81
2021/03/23 04:27:47;;;;;;;27.97;18.83;;;;;;;0.76;73.39;99244.80;113937;1196;64384;-81
2021/03/23 04:30:15;;;;;;;29.50;18.20;;;;;;;0.77;73.56;99245.69;113924;1196;64387;-82
2021/03/23 04:32:43;;;;;;;28.17;18.40;;;;;;;0.76;73.51;99241.33;113683;1197;64416;-81
2021/03/23 04:35:22;;;;;;;29.90;18.67;;;;;;;0.77;73.41;99243.07;113958;1196;64497;-81
2021/03/23 04:37:49;;;;;;;30.85;18.93;;;;;;;0.78;73.26;99250.03;113896;1196;64369;-81
2021/03/23 04:40:16;;;;;;;32.23;18.63;;;;;;;0.79;72.89;99243.88;113891;1197;64403;-82
2021/03/23 04:42:42;;;;;;;30.05;18.85;;;;;;;0.79;73.17;99250.01;113927;1197;64484;-82
2021/03/23 04:45:09;;;;;;;30.33;19.07;;;;;;;0.78;73.17;99257.90;113901;1196;64382;-81
2021/03/23 04:47:36;;;;;;;29.50;20.10;;;;;;;0.77;73.39;99251.80;113689;1197;64397;-82
2021/03/23 04:50:03;;;;;;;30.43;19.67;;;;;;;0.78;73.35;99250.89;113912;1196;64462;-82
2021/03/23 04:52:30;;;;;;;31.23;21.93;;;;;;;0.79;73.27;99260.50;113911;1196;64388;-81
2021/03/23 04:54:56;;;;;;;33.93;20.57;;;;;;;0.78;73.26;99258.75;113950;1196;64311;-82
2021/03/23 04:57:23;;;;;;;28.15;18.90;;;;;;;0.78;73.05;99257.90;113943;1196;64362;-82
2021/03/23 04:59:49;;;;;;;30.20;18.73;;;;;;;0.80;72.98;99256.97;113901;1196;64523;-82
2021/03/23 05:02:16;;;;;;;32.30;19.35;;;;;;;0.80;73.02;99256.11;113917;1196;64353;-82
2021/03/23 05:04:43;;;;;;;29.87;19.53;;;;;;;0.81;72.61;99253.44;113892;1196;64336;-82
2021/03/23 05:07:09;;;;;;;34.75;19.80;;;;;;;0.84;73.04;99268.24;113898;1196;64378;-82
2021/03/23 05:09:36;;;;;;;33.63;19.40;;;;;;;0.86;72.87;99261.20;113957;1196;64407;-82
2021/03/23 05:12:03;;;;;;;34.30;19.50;;;;;;;0.88;72.85;99264.66;113918;1195;64500;-82
2021/03/23 05:14:29;;;;;;;31.55;18.35;;;;;;;0.90;72.74;99257.63;113706;1196;64542;-82
2021/03/23 05:16:56;;;;;;;26.77;17.73;;;;;;;0.95;72.77;99254.87;113963;1196;64356;-81
2021/03/23 05:19:22;;;;;;;25.90;16.03;;;;;;;0.98;72.62;99255.68;113992;1196;64411;-82
2021/03/23 05:21:49;;;;;;;29.00;18.20;;;;;;;1.02;72.57;99248.58;113962;1199;64368;-83
2021/03/23 05:24:15;;;;;;;32.40;17.63;;;;;;;1.07;72.36;99251.95;113844;1197;64311;-83
2021/03/23 05:26:42;;;;;;;24.67;16.77;;;;;;;1.11;72.40;99251.00;113882;1196;64465;-83
2021/03/23 05:29:08;;;;;;;25.70;16.57;;;;;;;1.16;72.23;99245.61;113882;1196;64372;-83
2021/03/23 05:31:35;;;;;;;31.27;17.63;;;;;;;1.21;72.19;99248.98;113945;1196;64376;-83
2021/03/23 05:34:02;;;;;;;28.27;16.73;;;;;;;1.25;71.89;99248.88;113896;1196;64407;-83
2021/03/23 05:36:29;;;;;;;28.10;17.50;;;;;;;1.29;72.08;99253.17;113893;1197;64487;-83
2021/03/23 05:38:55;;;;;;;27.73;17.53;;;;;;;1.35;71.80;99254.77;113879;1197;64361;-83
2021/03/23 05:41:58;;;;;;;31.40;18.80;;;;;;;1.41;71.74;99251.98;113884;1196;64436;-83
2021/03/23 05:44:41;;;;;;;27.13;17.37;;;;;;;1.45;71.80;99256.27;113878;1196;64413;-81
2021/03/23 05:47:18;;;;;;;27.40;17.77;;;;;;;1.52;71.85;99256.95;113899;1196;64383;-81
2021/03/23 05:50:15;;;;;;;24.17;15.83;;;;;;;1.59;71.93;99262.92;113877;1196;64385;-83
2021/03/23 05:52:55;;;;;;;27.40;17.20;;;;;;;1.67;71.80;99261.81;113986;1196;64376;-82
2021/03/23 05:55:38;;;;;;;25.83;17.40;;;;;;;1.77;70.92;99257.18;113929;1196;64368;-81
2021/03/23 05:58:09;;;;;;;26.77;16.73;;;;;;;1.84;70.79;99256.09;113864;1196;64407;-81
2021/03/23 06:00:39;;;;;;;24.35;15.75;;;;;;;1.92;70.92;99256.77;113929;1197;64330;-82
2021/03/23 06:03:34;;;;;;;26.50;16.40;;;;;;;2.01;70.44;99252.16;113903;1196;64488;-81
2021/03/23 06:06:04;;;;;;;23.90;16.20;;;;;;;2.09;70.65;99261.54;113751;1197;64445;-82
2021/03/23 06:08:36;;;;;;;24.00;16.20;;;;;;;2.15;70.47;99265.76;113896;1194;64407;-82
2021/03/23 06:11:06;;;;;;;25.73;16.33;;;;;;;2.20;70.37;99256.83;113887;1196;64375;-81
2021/03/23 06:13:35;;;;;;;23.80;16.15;;;;;;;2.26;70.18;99266.30;113892;1196;64372;-82
2021/03/23 06:16:20;;;;;;;23.30;14.83;;;;;;;2.32;70.13;99266.15;113848;1196;64353;-83
2021/03/23 06:19:11;;;;;;;22.95;15.45;;;;;;;2.43;69.85;99264.98;113963;1196;64478;-83
2021/03/23 06:22:06;;;;;;;23.87;14.77;;;;;;;2.52;69.88;99269.95;113930;1196;64304;-83
2021/03/23 06:24:47;;;;;;;26.17;15.00;;;;;;;2.63;69.46;99266.11;113963;1196;64755;-83
2021/03/23 06:27:53;;;;;;;21.47;14.83;;;;;;;2.77;69.03;99265.67;113973;1196;64388;-82
2021/03/23 06:30:51;;;;;;;23.67;14.73;;;;;;;2.96;69.03;99263.32;113869;1196;64372;-82
2021/03/23 06:33:21;;;;;;;22.00;13.83;;;;;;;3.10;68.35;99259.38;113943;1196;64417;-82
2021/03/23 06:36:01;;;;;;;25.07;16.07;;;;;;;3.19;68.31;99262.59;114261;1196;64378;-81
2021/03/23 06:38:32;;;;;;;26.30;17.00;;;;;;;3.24;67.01;99268.57;113934;1196;64353;-82
2021/03/23 06:41:11;;;;;;;31.70;17.93;;;;;;;3.21;67.44;99260.78;113936;1196;64372;-82
2021/03/23 06:43:41;;;;;;;37.87;20.27;;;;;;;3.20;67.64;99273.98;113890;1196;64334;-83
2021/03/23 06:46:38;;;;;;;38.20;20.63;;;;;;;3.19;67.54;99259.10;113886;1196;64363;-82
2021/03/23 06:49:13;;;;;;;41.55;22.35;;;;;;;3.20;67.30;99263.45;113923;1197;64797;-84
2021/03/23 06:52:04;;;;;;;39.43;20.57;;;;;;;3.23;67.41;99264.20;113906;1196;64253;-82
2021/03/23 06:54:37;;;;;;;39.85;22.45;;;;;;;3.25;66.98;99258.89;113920;1196;64369;-82
2021/03/23 06:57:20;;;;;;;41.40;22.30;;;;;;;3.32;66.91;99268.33;113943;1196;64342;-82
2021/03/23 06:59:58;;;;;;;37.27;20.93;;;;;;;3.44;67.14;99264.41;113976;1196;64375;-82
2021/03/23 07:02:42;;;;;;;34.20;19.80;;;;;;;3.53;66.48;99272.02;113926;1196;64413;-83
2021/03/23 07:05:29;;;;;;;34.50;20.53;;;;;;;3.53;66.36;99269.38;113951;1196;64378;-83
2021/03/23 07:08:08;;;;;;;39.53;22.17;;;;;;;3.51;66.13;99271.20;113871;1196;64407;-83
2021/03/23 07:10:36;;;;;;;36.90;21.00;;;;;;;3.50;65.94;99272.98;113910;1198;64805;-82
2021/03/23 07:13:05;;;;;;;33.05;18.90;;;;;;;3.53;66.18;99274.65;113978;1200;64391;-82
2021/03/23 07:15:36;;;;;;;35.60;20.03;;;;;;;3.57;66.03;99273.61;113938;1196;64378;-81
2021/03/23 07:18:06;;;;;;;31.93;18.13;;;;;;;3.61;66.01;99274.39;114031;1196;64376;-81
2021/03/23 07:20:33;;;;;;;31.08;19.63;;;;;;;3.65;65.98;99271.57;113954;1196;64378;-82
2021/03/23 07:23:37;;;;;;;34.87;20.80;;;;;;;3.74;65.73;99270.42;113916;1196;64410;-83
2021/03/23 07:26:22;;;;;;;35.30;20.17;;;;;;;3.79;65.19;99267.59;113892;1199;64538;-82
2021/03/23 07:28:49;;;;;;;35.05;19.20;;;;;;;3.79;64.17;99271.13;113911;1200;64362;-83
2021/03/23 07:31:37;;;;;;;34.90;19.93;;;;;;;3.82;65.28;99276.28;113958;1199;64385;-82
2021/03/23 07:34:10;;;;;;;35.33;19.93;;;;;;;3.99;65.24;99278.31;113986;1196;64375;-81
2021/03/23 07:36:58;;;;;;;31.95;18.25;;;;;;;4.14;64.80;99279.55;113917;1196;64414;-83
2021/03/23 07:39:40;;;;;;;34.83;19.53;;;;;;;4.33;64.48;99266.54;113971;1196;64423;-81
2021/03/23 07:42:24;;;;;;;35.53;19.53;;;;;;;4.44;63.99;99274.91;113975;1196;64381;-82
2021/03/23 07:44:59;;;;;;;31.90;17.25;;;;;;;4.59;62.85;99274.33;114000;1196;64353;-82
2021/03/23 07:47:55;;;;;;;27.47;18.33;;;;;;;4.66;62.92;99284.64;113950;1197;64302;-82
2021/03/23 07:50:32;;;;;;;35.97;19.40;;;;;;;4.72;63.04;99277.37;113840;1196;64458;-82
2021/03/23 07:53:21;;;;;;;26.53;17.13;;;;;;;4.71;62.41;99285.33;113930;1197;64493;-82
2021/03/23 07:55:50;;;;;;;29.67;18.67;;;;;;;4.72;62.75;99277.37;113948;1196;64478;-83
2021/03/23 07:58:23;;;;;;;26.57;15.77;;;;;;;4.77;62.70;99275.41;113928;1197;64359;-82
2021/03/23 08:00:59;;;;;;;29.17;17.70;;;;;;;4.80;62.74;99279.72;113904;1196;65961;-81
2021/03/23 08:03:39;;;;;;;30.13;18.97;;;;;;;4.82;62.94;99280.52;113988;1196;64459;-82
2021/03/23 08:06:28;;;;;;;31.33;18.47;;;;;;;4.89;62.93;99281.98;113913;1199;64496;-81
2021/03/23 08:09:09;;;;;;;32.57;19.53;;;;;;;4.91;61.95;99276.66;113922;1200;64446;-83
2021/03/23 08:12:14;;;;;;;34.13;19.20;;;;;;;4.89;62.41;99275.84;113953;1197;64382;-83
2021/03/23 08:14:50;;;;;;;34.57;20.40;;;;;;;4.78;62.23;99282.41;113919;1196;64350;-82
2021/03/23 08:17:25;;;;;;;29.33;18.70;;;;;;;4.76;62.02;99278.09;113868;1197;64542;-82
2021/03/23 08:20:17;;;;;;;32.53;20.20;;;;;;;4.72;62.33;99280.01;113990;1196;64465;-82
2021/03/23 08:23:09;;;;;;;35.00;21.00;;;;;;;4.75;61.92;99279.89;113923;1196;64736;-82
2021/03/23 08:25:51;;;;;;;34.40;20.47;;;;;;;4.71;62.08;99283.55;113973;1199;64781;-82
2021/03/23 08:28:55;;;;;;;31.55;20.00;;;;;;;4.73;62.40;99275.58;113747;1200;64343;-82
2021/03/23 08:31:57;;;;;;;33.90;19.95;;;;;;;4.79;62.18;99281.50;113888;1196;64328;-82
2021/03/23 08:34:45;;;;;;;33.00;19.20;;;;;;;4.87;61.97;99280.31;113924;1196;64504;-82
2021/03/23 08:37:21;;;;;;;31.53;20.10;;;;;;;4.89;62.13;99286.41;113921;1197;64544;-82
2021/03/23 08:40:12;;;;;;;34.40;20.40;;;;;;;4.86;62.25;99292.67;113937;1196;64387;-82
2021/03/23 08:42:39;;;;;;;33.60;20.03;;;;;;;4.78;61.89;99294.75;113744;1198;64346;-82
2021/03/23 08:45:29;;;;;;;32.75;19.90;;;;;;;4.73;62.30;99296.70;113868;1197;64500;-81
2021/03/23 08:48:05;;;;;;;35.67;20.33;;;;;;;4.69;61.71;99297.76;113900;1196;64436;-82
2021/03/23 08:50:37;;;;;;;31.30;18.05;;;;;;;4.60;61.86;99296.30;113969;1197;64305;-82
2021/03/23 08:53:25;;;;;;;33.40;18.17;;;;;;;4.59;62.32;99299.88;113781;1196;64347;-82
2021/03/23 08:55:52;;;;;;;29.40;17.27;;;;;;;4.60;62.43;99291.02;113852;1197;64807;-82
2021/03/23 08:58:54;;;;;;;29.07;17.80;;;;;;;4.63;62.49;99296.18;113898;1196;64381;-82
2021/03/23 09:01:40;;;;;;;31.55;18.15;;;;;;;4.67;62.54;99304.86;113997;1196;64477;-82
2021/03/23 09:04:10;;;;;;;32.20;18.85;;;;;;;4.81;62.26;99297.27;113888;1196;64372;-82
2021/03/23 09:06:57;;;;;;;30.45;18.75;;;;;;;4.99;61.50;99287.77;113892;1196;64391;-83
2021/03/23 09:09:29;;;;;;;27.83;16.17;;;;;;;5.17;60.88;99275.62;113901;1196;64426;-82
2021/03/23 09:12:10;;;;;;;23.20;14.53;;;;;;;5.20;61.60;99284.27;113846;1196;64471;-82
2021/03/23 09:15:08;;;;;;;22.40;14.47;;;;;;;5.32;61.62;99284.69;113932;1199;64407;-82
2021/03/23 09:18:02;;;;;;;30.43;15.83;;;;;;;5.39;61.92;99292.30;113915;1199;64305;-82
2021/03/23 09:20:39;;;;;;;26.10;15.53;;;;;;;5.48;61.39;99285.80;113999;1199;64458;-82
2021/03/23 09:23:18;;;;;;;25.07;14.77;;;;;;;5.54;61.51;99285.53;113922;1197;64411;-82
2021/03/23 09:25:59;;;;;;;27.65;15.30;;;;;;;5.67;61.64;99288.52;113938;1196;64336;-82
2021/03/23 09:28:29;;;;;;;24.30;14.97;;;;;;;5.81;61.35;99282.64;114127;1196;64425;-82
2021/03/23 09:30:58;;;;;;;27.83;16.13;;;;;;;5.93;61.60;99288.30;113926;1197;64477;-83
2021/03/23 09:33:24;;;;;;;20.93;14.17;;;;;;;5.97;61.27;99286.38;113955;1196;64340;-83
2021/03/23 09:36:05;;;;;;;22.87;14.37;;;;;;;5.98;61.18;99292.52;113884;1196;64465;-82
2021/03/23 09:38:39;;;;;;;22.95;13.95;;;;;;;6.06;61.56;99291.28;113934;1196;64436;-82
2021/03/23 09:41:33;;;;;;;20.90;13.50;;;;;;;5.94;61.51;99294.44;114007;1196;64379;-82
2021/03/23 09:44:05;;;;;;;24.13;14.30;;;;;;;5.81;62.16;99295.87;113987;1196;64410;-82
2021/03/23 09:46:32;;;;;;;23.20;14.90;;;;;;;5.81;62.80;99282.64;113908;1196;64372;-83
2021/03/23 09:49:10;;;;;;;24.90;15.17;;;;;;;6.00;62.68;99288.88;113921;1196;64308;-83
2021/03/23 09:51:43;;;;;;;22.90;13.57;;;;;;;6.08;62.78;99284.14;113891;1196;64388;-83
2021/03/23 09:54:52;;;;;;;24.70;15.13;;;;;;;6.05;62.82;99286.04;113730;1196;64352;-83
2021/03/23 09:57:22;;;;;;;25.03;16.05;;;;;;;6.15;62.83;99284.71;113979;1196;64337;-82
2021/03/23 09:59:52;;;;;;;22.20;15.55;;;;;;;6.28;62.94;99277.94;113996;1197;64384;-83
2021/03/23 10:02:30;;;;;;;23.07;16.43;;;;;;;6.34;63.00;99276.80;113967;1196;64478;-87
2021/03/23 10:05:35;;;;;;;24.90;17.50;;;;;;;6.41;63.04;99272.95;113943;1196;64519;-80
2021/03/23 10:08:18;;;;;;;27.67;17.00;;;;;;;6.43;62.73;99276.41;114691;1196;64305;-93
2021/03/23 10:10:46;;;;;;;31.30;18.63;;;;;;;6.46;62.73;99278.05;114704;1198;64301;-90
2021/03/23 10:13:24;;;;;;;29.70;16.97;;;;;;;6.42;62.77;99268.52;114052;1199;64404;-82
2021/03/23 10:15:50;;;;;;;26.85;17.85;;;;;;;6.32;62.77;99281.33;113917;1196;64385;-82
2021/03/23 10:18:17;;;;;;;29.70;20.20;;;;;;;6.30;63.15;99278.73;113909;1197;64464;-81
2021/03/23 10:20:46;;;;;;;27.03;20.10;;;;;;;6.47;63.20;99274.46;113860;1196;64548;-82
2021/03/23 10:23:12;;;;;;;29.40;20.63;;;;;;;6.54;63.10;99283.85;113929;1197;64368;-81
2021/03/23 10:25:43;;;;;;;23.53;16.80;;;;;;;6.52;62.77;99275.11;113864;1196;64407;-82
2021/03/23 10:28:29;;;;;;;23.60;17.03;;;;;;;6.50;63.27;99272.55;113876;1196;64347;-80
2021/03/23 10:31:01;;;;;;;21.93;15.90;;;;;;;6.54;63.37;99276.77;113905;1196;64503;-82
2021/03/23 10:33:33;;;;;;;20.90;15.77;;;;;;;6.63;63.35;99272.82;113888;1196;64368;-81
2021/03/23 10:36:02;;;;;;;21.43;15.53;;;;;;;6.64;63.02;99279.86;113928;1196;64567;-81
2021/03/23 10:38:29;;;;;;;26.03;16.73;;;;;;;6.65;63.68;99270.97;113884;1197;64362;-81
2021/03/23 10:41:24;;;;;;;24.40;16.80;;;;;;;6.62;63.56;99267.61;113874;1196;64375;-82
2021/03/23 10:43:53;;;;;;;24.07;17.87;;;;;;;6.60;63.98;99267.67;113863;1196;64381;-81
2021/03/23 10:46:40;;;;;;;25.60;17.15;;;;;;;6.56;64.33;99274.06;113961;1196;64748;-82
2021/03/23 10:49:11;;;;;;;25.30;18.17;;;;;;;6.44;64.22;99275.46;113956;1196;64462;-82
2021/03/23 10:51:47;;;;;;;29.87;20.07;;;;;;;6.30;64.44;99278.73;113953;1198;64387;-81
2021/03/23 10:54:24;;;;;;;23.00;19.17;;;;;;;6.20;64.85;99273.93;113694;1200;64561;-83
2021/03/23 10:56:56;;;;;;;23.70;18.47;;;;;;;6.17;64.92;99279.36;113884;1199;64443;-81
2021/03/23 10:59:27;;;;;;;27.80;18.77;;;;;;;6.24;64.83;99288.73;113916;1199;64445;-82
2021/03/23 11:02:02;;;;;;;23.57;18.87;;;;;;;6.21;64.87;99291.52;113864;1196;64382;-79
2021/03/23 11:04:30;;;;;;;27.33;19.23;;;;;;;6.14;65.18;99289.15;113766;1200;64442;-83
2021/03/23 11:07:21;;;;;;;28.20;19.80;;;;;;;6.25;64.96;99293.97;114241;1197;64330;-78
2021/03/23 11:09:57;;;;;;;26.45;18.10;;;;;;;6.41;64.87;99294.14;114086;1197;64541;-83
2021/03/23 11:12:25;;;;;;;31.27;20.37;;;;;;;6.49;64.65;99291.14;113920;1196;64324;-85
2021/03/23 11:14:53;;;;;;;31.97;19.23;;;;;;;6.59;65.00;99285.36;113944;1196;64381;-85
2021/03/23 11:17:22;;;;;;;25.75;17.70;;;;;;;6.70;64.71;99289.30;113992;1196;64343;-85
2021/03/23 11:19:57;;;;;;;24.95;18.58;;;;;;;6.75;64.74;99290.80;113953;1196;64452;-85
2021/03/23 11:22:32;;;;;;;28.57;21.43;;;;;;;6.65;64.55;99292.16;113883;1196;64826;-84
2021/03/23 11:25:00;;;;;;;30.40;20.17;;;;;;;6.55;64.75;99294.36;113939;1196;64443;-85
2021/03/23 11:27:27;;;;;;;30.17;20.73;;;;;;;6.41;64.91;99287.98;113962;1196;64739;-85
2021/03/23 11:29:56;;;;;;;23.17;18.77;;;;;;;6.33;65.09;99293.63;113912;1196;64413;-85
2021/03/23 11:32:24;;;;;;;24.93;19.40;;;;;;;6.29;65.23;99289.38;113950;1196;64478;-85
2021/03/23 11:34:51;;;;;;;27.85;20.80;;;;;;;6.32;65.41;99279.54;113972;1197;64401;-85
2021/03/23 11:37:19;;;;;;;26.13;19.57;;;;;;;6.37;65.37;99288.13;113928;1197;64628;-85
2021/03/23 11:39:46;;;;;;;26.87;19.50;;;;;;;6.47;65.48;99279.76;113925;1196;64366;-85
2021/03/23 11:42:26;;;;;;;22.43;19.50;;;;;;;6.56;64.79;99277.56;113903;1196;64378;-85
2021/03/23 11:45:06;;;;;;;24.97;19.97;;;;;;;6.72;65.42;99277.70;113937;1196;64404;-86
2021/03/23 11:47:45;;;;;;;24.10;21.07;;;;;;;6.86;64.96;99279.70;113917;1196;64433;-85